Terminal Aerodrome Forecast
Issued by NWS

Home | Current Version | Previous Version | Text Only | Print | Product List | Glossary On
Versions: 1 2 3 4 5 6 7 8 9 10 11 12 13 14 15 16 17 18 19 20 21 22 23 24
000
FTUS43 KOAX 291410 AAB
TAFBFF
TAF AMD
KBFF 291410Z 2914/3012 30008KT P6SM OVC014
      TEMPO 2914/2917 BKN009
     FM291800 01013KT P6SM BKN025
     FM292100 01010KT P6SM SCT025
     FM300100 VRB04KT P6SM SKC=

USA.gov is the U.S. government's official web portal to all federal, state and local government web resources and services.